createdAt,value
2022-09-07T00:02:20.999Z,6.68
2022-09-07T00:04:47.704Z,5.68
2022-09-07T00:07:14.501Z,8.80
2022-09-07T00:09:41.390Z,5.78
2022-09-07T00:12:08.105Z,6.95
2022-09-07T00:14:35.119Z,6.07
2022-09-07T00:17:01.811Z,5.10
2022-09-07T00:19:28.513Z,4.15
2022-09-07T00:21:55.223Z,5.85
2022-09-07T00:24:21.899Z,4.40
2022-09-07T00:26:48.639Z,5.60
2022-09-07T00:29:15.364Z,8.80
2022-09-07T00:31:42.161Z,4.80
2022-09-07T00:34:09.008Z,5.38
2022-09-07T00:36:35.770Z,8.18
2022-09-07T00:39:02.571Z,5.57
2022-09-07T00:41:29.354Z,4.65
2022-09-07T00:43:59.233Z,3.85
2022-09-07T00:46:31.270Z,3.97
2022-09-07T00:49:16.234Z,4.65
2022-09-07T00:51:48.523Z,9.02
2022-09-07T00:54:20.420Z,4.32
2022-09-07T00:56:49.022Z,3.85
2022-09-07T00:59:19.817Z,4.88
2022-09-07T01:01:46.665Z,5.90
2022-09-07T01:04:14.278Z,3.30
2022-09-07T01:06:42.479Z,8.75
2022-09-07T01:09:19.545Z,6.03
2022-09-07T01:11:50.917Z,4.80
2022-09-07T01:14:22.761Z,5.10
2022-09-07T01:20:00.194Z,3.47
2022-09-07T01:25:51.061Z,5.97
2022-09-07T01:28:21.398Z,5.15
2022-09-07T01:31:01.436Z,3.10
2022-09-07T01:33:51.840Z,4.43
2022-09-07T01:36:50.417Z,7.05
2022-09-07T01:39:19.277Z,3.70
2022-09-07T01:41:57.712Z,3.38
2022-09-07T01:44:37.139Z,7.15
2022-09-07T01:47:22.407Z,8.57
2022-09-07T01:50:21.065Z,6.25
2022-09-07T01:52:57.416Z,8.00
2022-09-07T01:55:39.285Z,2.90
2022-09-07T01:58:18.008Z,4.28
2022-09-07T02:00:50.850Z,3.05
2022-09-07T02:03:53.131Z,2.78
2022-09-07T02:06:26.651Z,5.63
2022-09-07T02:09:00.993Z,5.18
2022-09-07T02:11:40.337Z,4.50
2022-09-07T02:14:13.912Z,4.53
2022-09-07T02:17:12.244Z,7.20
2022-09-07T02:19:46.495Z,6.70
2022-09-07T02:22:17.033Z,5.30
2022-09-07T02:24:48.116Z,6.38
2022-09-07T02:27:24.451Z,14.50
2022-09-07T02:29:52.121Z,5.85
2022-09-07T02:32:19.133Z,6.32
2022-09-07T02:34:46.452Z,3.30
2022-09-07T02:37:15.333Z,5.28
2022-09-07T02:39:42.200Z,5.63
2022-09-07T02:42:09.736Z,4.85
2022-09-07T02:44:38.849Z,5.85
2022-09-07T02:47:32.275Z,4.20
2022-09-07T02:50:01.941Z,4.70
2022-09-07T02:52:42.429Z,3.33
2022-09-07T02:55:37.081Z,4.18
2022-09-07T02:58:40.719Z,8.85
2022-09-07T03:01:33.141Z,4.07
2022-09-07T03:04:05.772Z,4.35
2022-09-07T03:06:38.958Z,9.15
2022-09-07T03:09:11.192Z,5.57
2022-09-07T03:11:38.166Z,4.20
2022-09-07T03:14:18.018Z,5.07
2022-09-07T03:16:44.938Z,9.05
2022-09-07T03:19:11.716Z,7.20
2022-09-07T03:21:38.419Z,5.18
2022-09-07T03:24:05.552Z,4.47
2022-09-07T03:26:32.603Z,7.72
2022-09-07T03:28:59.748Z,7.18
2022-09-07T03:31:26.478Z,3.08
2022-09-07T03:33:54.454Z,6.32
2022-09-07T03:36:21.276Z,6.45
2022-09-07T03:38:47.939Z,7.45
2022-09-07T03:41:14.625Z,3.25
2022-09-07T03:43:41.299Z,7.78
2022-09-07T03:46:10.294Z,6.15
2022-09-07T03:48:39.194Z,4.75
2022-09-07T03:51:11.504Z,4.75
2022-09-07T03:53:40.832Z,3.33
2022-09-07T03:56:10.998Z,3.45
2022-09-07T03:58:38.709Z,8.07
2022-09-07T04:01:11.449Z,5.50
2022-09-07T04:03:39.513Z,7.18
2022-09-07T04:06:06.611Z,6.85
2022-09-07T04:08:35.047Z,3.83
2022-09-07T04:11:04.616Z,6.32
2022-09-07T04:13:31.626Z,9.70
2022-09-07T04:15:58.515Z,6.28
2022-09-07T04:18:25.750Z,6.80
2022-09-07T04:20:52.509Z,6.70
2022-09-07T04:23:20.136Z,9.55
2022-09-07T04:25:52.110Z,7.93
2022-09-07T04:28:20.573Z,8.68
2022-09-07T04:30:47.825Z,6.57
2022-09-07T04:33:14.750Z,8.57
2022-09-07T04:35:42.639Z,9.02
2022-09-07T04:38:13.923Z,6.95
2022-09-07T04:40:40.765Z,10.07
2022-09-07T04:43:09.451Z,6.43
2022-09-07T04:45:37.246Z,9.05
2022-09-07T04:48:04.773Z,9.23
2022-09-07T04:50:31.997Z,9.82
2022-09-07T04:52:58.697Z,7.53
2022-09-07T04:55:25.634Z,5.38
2022-09-07T04:57:52.351Z,5.97
2022-09-07T05:00:19.493Z,9.38
2022-09-07T05:02:46.259Z,8.60
2022-09-07T05:05:13.094Z,8.90
2022-09-07T05:07:39.891Z,9.70
2022-09-07T05:10:06.814Z,7.28
2022-09-07T05:12:33.538Z,10.82
2022-09-07T05:15:00.366Z,5.88
2022-09-07T05:17:27.233Z,6.90
2022-09-07T05:19:55.065Z,7.55
2022-09-07T05:22:22.741Z,7.40
2022-09-07T05:24:49.493Z,7.00
2022-09-07T05:27:16.320Z,8.55
2022-09-07T05:32:29.874Z,7.93
2022-09-07T05:34:56.624Z,6.82
2022-09-07T05:37:23.853Z,5.97
2022-09-07T05:39:52.352Z,9.45
2022-09-07T05:42:19.116Z,11.70
2022-09-07T05:44:46.121Z,8.57
2022-09-07T05:47:13.774Z,6.18
2022-09-07T05:49:40.693Z,6.88
2022-09-07T05:52:07.761Z,6.35
2022-09-07T05:54:34.898Z,7.22
2022-09-07T05:57:03.555Z,6.47
2022-09-07T05:59:30.689Z,6.55
2022-09-07T06:01:57.453Z,7.72
2022-09-07T06:04:24.268Z,10.90
2022-09-07T06:07:20.182Z,6.07
2022-09-07T06:12:25.710Z,8.32
2022-09-07T06:14:55.401Z,9.43
2022-09-07T06:17:22.179Z,7.72
2022-09-07T06:19:51.752Z,6.88
2022-09-07T06:22:18.466Z,7.63
2022-09-07T06:24:45.122Z,10.35
2022-09-07T06:27:11.838Z,9.50
2022-09-07T06:29:38.750Z,9.07
2022-09-07T06:34:52.299Z,14.00
2022-09-07T06:37:18.984Z,7.63
2022-09-07T06:39:45.793Z,9.10
2022-09-07T06:42:12.553Z,9.57
2022-09-07T06:44:43.418Z,9.43
2022-09-07T06:47:10.657Z,15.98
2022-09-07T06:49:38.806Z,8.80
2022-09-07T06:52:05.548Z,12.75
2022-09-07T06:57:19.015Z,5.78
2022-09-07T06:59:45.690Z,9.55
2022-09-07T07:02:14.940Z,8.27
2022-09-07T07:05:07.330Z,12.25
2022-09-07T07:07:34.486Z,5.18
2022-09-07T07:10:22.197Z,13.23
2022-09-07T07:15:46.476Z,13.48
2022-09-07T07:18:22.215Z,7.25
2022-09-07T07:20:48.956Z,8.25
2022-09-07T07:23:15.631Z,7.65
2022-09-07T07:25:42.422Z,6.13
2022-09-07T07:31:00.375Z,8.02
2022-09-07T07:33:32.266Z,9.02
2022-09-07T07:36:22.300Z,5.80
2022-09-07T07:44:16.915Z,4.90
2022-09-07T07:46:44.158Z,5.75
2022-09-07T07:49:10.838Z,5.22
2022-09-07T07:54:24.134Z,6.53
2022-09-07T07:56:57.913Z,6.97
2022-09-07T07:59:36.038Z,3.65
2022-09-07T08:02:05.355Z,6.88
2022-09-07T08:04:33.733Z,8.80
2022-09-07T08:07:03.442Z,4.03
2022-09-07T08:09:32.793Z,5.50
2022-09-07T08:11:59.441Z,6.20
2022-09-07T08:14:26.104Z,4.32
2022-09-07T08:16:52.737Z,2.95
2022-09-07T08:19:19.522Z,2.45
2022-09-07T08:21:46.146Z,3.45
2022-09-07T08:24:12.824Z,3.53
2022-09-07T08:26:39.457Z,3.78
2022-09-07T08:29:06.101Z,1.55
2022-09-07T08:31:33.019Z,2.45
2022-09-07T08:34:00.146Z,2.60
2022-09-07T08:36:26.933Z,2.22
2022-09-07T08:38:53.930Z,2.75
2022-09-07T08:41:48.522Z,2.50
2022-09-07T08:44:39.219Z,1.65
2022-09-07T08:47:12.486Z,3.00
2022-09-07T08:50:01.214Z,2.70
2022-09-07T08:52:38.140Z,2.28
2022-09-07T08:55:29.582Z,2.88
2022-09-07T08:58:47.585Z,2.83
2022-09-07T09:01:31.359Z,1.80
2022-09-07T09:07:00.456Z,1.85
2022-09-07T09:12:13.986Z,4.03
2022-09-07T09:14:56.628Z,1.15
2022-09-07T09:17:32.293Z,8.73
2022-09-07T09:20:17.518Z,1.55
2022-09-07T09:22:44.774Z,3.00
2022-09-07T09:25:21.197Z,1.98
2022-09-07T09:27:49.404Z,2.60
2022-09-07T09:30:22.600Z,2.20
2022-09-07T09:32:52.717Z,0.77
2022-09-07T09:35:34.758Z,1.23
2022-09-07T09:38:03.656Z,2.80
2022-09-07T09:40:32.997Z,2.60
2022-09-07T09:43:17.367Z,2.17
2022-09-07T09:48:40.358Z,2.13
2022-09-07T09:53:59.649Z,1.65
2022-09-07T09:56:40.868Z,1.13
2022-09-07T10:05:39.290Z,0.95
2022-09-07T10:08:19.933Z,1.20
2022-09-07T10:11:01.308Z,1.52
2022-09-07T10:16:03.660Z,0.75
2022-09-07T10:18:35.173Z,3.10
2022-09-07T10:21:21.409Z,1.65
2022-09-07T10:23:58.122Z,1.77
2022-09-07T10:26:33.805Z,1.83
2022-09-07T10:29:36.406Z,3.42
2022-09-07T10:32:23.062Z,0.93
2022-09-07T10:35:27.128Z,2.35
2022-09-07T10:38:03.593Z,3.60
2022-09-07T10:40:43.963Z,1.33
2022-09-07T10:43:45.434Z,1.92
2022-09-07T10:49:19.077Z,3.38
2022-09-07T10:52:14.585Z,2.35
2022-09-07T10:54:52.886Z,1.88
2022-09-07T10:57:49.052Z,1.33
2022-09-07T11:00:18.768Z,2.40
2022-09-07T11:03:32.116Z,1.95
2022-09-07T11:06:16.366Z,0.63
2022-09-07T11:09:21.419Z,4.68
2022-09-07T11:12:05.588Z,1.35
2022-09-07T11:14:55.972Z,0.57
2022-09-07T11:17:27.493Z,1.77
2022-09-07T11:20:03.284Z,1.60
2022-09-07T11:22:46.403Z,1.70
2022-09-07T11:25:31.081Z,4.25
2022-09-07T11:28:26.307Z,1.95
2022-09-07T11:31:00.347Z,1.83
2022-09-07T11:33:35.847Z,1.50
2022-09-07T11:36:12.697Z,1.33
2022-09-07T11:38:59.266Z,3.20
2022-09-07T11:41:32.167Z,3.13
2022-09-07T11:44:14.659Z,1.20
2022-09-07T11:46:45.681Z,1.75
2022-09-07T11:49:20.677Z,1.58
2022-09-07T11:52:09.271Z,1.27
2022-09-07T11:54:45.175Z,2.05
2022-09-07T11:57:14.691Z,2.33
2022-09-07T11:59:47.784Z,1.13
2022-09-07T12:02:58.102Z,2.58
2022-09-07T12:05:53.500Z,2.22
2022-09-07T12:08:26.560Z,1.65
2022-09-07T12:11:23.335Z,2.80
2022-09-07T12:14:04.909Z,0.98
2022-09-07T12:16:54.206Z,3.13
2022-09-07T12:19:24.559Z,2.33
2022-09-07T12:21:51.197Z,3.40
2022-09-07T12:24:41.032Z,1.55
2022-09-07T12:27:19.824Z,1.30
2022-09-07T12:29:48.375Z,3.20
2022-09-07T12:32:54.468Z,3.63
2022-09-07T12:35:28.368Z,1.50
2022-09-07T12:37:56.300Z,3.38
2022-09-07T12:40:28.911Z,1.33
2022-09-07T12:43:17.045Z,3.75
2022-09-07T12:45:43.939Z,1.75
2022-09-07T12:48:16.432Z,1.52
2022-09-07T12:54:31.980Z,1.70
2022-09-07T12:57:40.568Z,6.20
2022-09-07T13:00:35.523Z,5.70
2022-09-07T13:07:08.117Z,1.98
2022-09-07T13:09:39.807Z,2.42
2022-09-07T13:15:45.463Z,3.00
2022-09-07T13:18:27.770Z,2.50
2022-09-07T13:21:52.255Z,5.10
2022-09-07T13:24:50.685Z,5.60
2022-09-07T13:27:26.570Z,4.20
2022-09-07T13:30:01.846Z,2.95
2022-09-07T13:33:09.137Z,4.75
2022-09-07T13:36:22.083Z,3.60
2022-09-07T13:38:58.169Z,3.75
2022-09-07T13:41:52.753Z,3.13
2022-09-07T13:44:52.128Z,5.25
2022-09-07T13:47:21.120Z,4.57
2022-09-07T13:50:35.116Z,4.97
2022-09-07T13:53:19.229Z,4.95
2022-09-07T13:55:57.487Z,3.35
2022-09-07T13:58:33.048Z,3.78
2022-09-07T14:01:07.372Z,4.22
2022-09-07T14:04:07.439Z,3.38
2022-09-07T14:06:35.751Z,4.15
2022-09-07T14:09:18.422Z,5.70
2022-09-07T14:11:48.963Z,6.78
2022-09-07T14:14:19.957Z,5.03
2022-09-07T14:16:54.126Z,4.45
2022-09-07T14:19:30.980Z,4.47
2022-09-07T14:22:08.972Z,4.85
2022-09-07T14:24:51.291Z,4.53
2022-09-07T14:27:42.145Z,3.70
2022-09-07T14:32:44.158Z,2.85
2022-09-07T14:35:13.679Z,4.07
2022-09-07T14:37:40.989Z,4.13
2022-09-07T14:40:15.860Z,3.95
2022-09-07T14:42:43.194Z,4.95
2022-09-07T14:45:32.017Z,4.35
2022-09-07T14:48:01.864Z,4.10
2022-09-07T14:50:41.448Z,3.97
2022-09-07T14:56:09.969Z,5.35
2022-09-07T14:58:36.639Z,3.45
2022-09-07T15:04:17.323Z,4.35
2022-09-07T15:07:02.223Z,5.32
2022-09-07T15:09:38.091Z,4.95
2022-09-07T15:12:24.912Z,5.65
2022-09-07T15:15:22.019Z,9.85
2022-09-07T15:17:49.120Z,6.13
2022-09-07T15:20:48.231Z,5.38
2022-09-07T15:23:16.974Z,6.68
2022-09-07T15:25:50.876Z,4.50
2022-09-07T15:34:02.257Z,5.25
2022-09-07T15:36:32.001Z,6.05
2022-09-07T15:38:59.717Z,5.57
2022-09-07T15:41:27.812Z,5.38
2022-09-07T15:43:55.493Z,6.60
2022-09-07T15:46:25.111Z,4.22
2022-09-07T15:48:54.531Z,5.47
2022-09-07T15:54:13.947Z,5.50
2022-09-07T15:57:48.506Z,4.07
2022-09-07T15:59:31.626Z,4.18
2022-09-07T16:01:58.709Z,7.75
2022-09-07T16:04:25.841Z,6.50
2022-09-07T16:06:52.647Z,5.82
2022-09-07T16:09:21.874Z,3.90
2022-09-07T16:11:50.981Z,4.63
2022-09-07T16:14:18.234Z,7.82
2022-09-07T16:19:34.903Z,4.60
2022-09-07T16:22:03.119Z,8.30
2022-09-07T16:24:30.203Z,5.20
2022-09-07T16:26:56.998Z,5.90
2022-09-07T16:29:24.529Z,3.58
2022-09-07T16:34:39.740Z,4.22
2022-09-07T16:37:07.178Z,4.15
2022-09-07T16:39:34.583Z,4.05
2022-09-07T16:42:01.407Z,6.03
2022-09-07T16:44:28.033Z,6.35
2022-09-07T16:46:55.008Z,8.80
2022-09-07T16:49:22.485Z,4.55
2022-09-07T16:51:49.881Z,4.28
2022-09-07T16:54:17.538Z,5.60
2022-09-07T16:56:44.365Z,3.35
2022-09-07T16:59:16.483Z,3.22
2022-09-07T17:01:43.249Z,3.30
2022-09-07T17:04:11.535Z,4.55
2022-09-07T17:06:39.847Z,4.18
2022-09-07T17:09:07.639Z,4.20
2022-09-07T17:11:36.507Z,4.57
2022-09-07T17:14:05.380Z,3.83
2022-09-07T17:16:40.081Z,2.72
2022-09-07T17:21:57.712Z,2.78
2022-09-07T17:24:24.594Z,2.05
2022-09-07T17:26:52.533Z,3.13
2022-09-07T17:29:22.352Z,2.83
2022-09-07T17:52:01.226Z,4.82
2022-09-07T17:54:33.683Z,5.50
2022-09-07T17:57:06.424Z,3.03
2022-09-07T18:02:23.571Z,1.65
2022-09-07T18:04:50.819Z,3.40
2022-09-07T18:07:17.717Z,2.63
2022-09-07T18:09:44.558Z,1.73
2022-09-07T18:12:11.255Z,4.90
2022-09-07T18:14:37.904Z,3.08
2022-09-07T18:17:05.779Z,2.10
2022-09-07T18:19:32.425Z,5.03
2022-09-07T18:21:59.515Z,1.60
2022-09-07T18:24:27.316Z,5.53
2022-09-07T18:26:54.124Z,3.10
2022-09-07T18:29:33.682Z,5.15
2022-09-07T18:32:03.008Z,2.55
2022-09-07T18:34:31.942Z,2.38
2022-09-07T18:36:59.726Z,4.63
2022-09-07T18:39:27.100Z,5.43
2022-09-07T18:41:54.586Z,1.35
2022-09-07T18:47:08.634Z,2.08
2022-09-07T18:49:35.355Z,2.47
2022-09-07T18:54:49.542Z,5.88
2022-09-07T18:57:17.055Z,5.57
2022-09-07T18:59:43.997Z,3.15
2022-09-07T19:02:11.151Z,4.00
2022-09-07T19:07:29.574Z,6.85
2022-09-07T19:12:24.111Z,4.57
2022-09-07T19:14:51.003Z,4.18
2022-09-07T19:17:17.864Z,5.38
2022-09-07T19:19:44.689Z,7.07
2022-09-07T19:22:11.435Z,7.70
2022-09-07T19:24:38.197Z,6.18
2022-09-07T19:27:07.155Z,3.92
2022-09-07T19:29:33.856Z,4.90
2022-09-07T19:32:11.903Z,3.42
2022-09-07T19:34:43.634Z,5.15
2022-09-07T19:39:38.163Z,4.68
2022-09-07T19:42:05.784Z,4.90
2022-09-07T19:44:32.768Z,4.50
2022-09-07T19:47:00.450Z,2.95
2022-09-07T19:49:27.645Z,6.15
2022-09-07T19:51:54.438Z,3.72
2022-09-07T19:54:21.282Z,5.80
2022-09-07T19:56:47.963Z,8.57
2022-09-07T19:59:14.762Z,4.38
2022-09-07T20:01:45.869Z,4.07
2022-09-07T20:04:19.642Z,4.10
2022-09-07T20:06:49.549Z,7.80
2022-09-07T20:09:17.477Z,4.95
2022-09-07T20:11:46.718Z,5.95
2022-09-07T20:14:15.225Z,3.53
2022-09-07T20:16:42.145Z,6.93
2022-09-07T20:19:11.864Z,3.70
2022-09-07T20:21:38.564Z,8.10
2022-09-07T20:24:05.857Z,6.32
2022-09-07T20:26:32.714Z,5.72
2022-09-07T20:29:16.782Z,5.97
2022-09-07T20:31:47.099Z,7.18
2022-09-07T20:34:14.281Z,5.18
2022-09-07T20:36:41.484Z,5.10
2022-09-07T20:39:08.149Z,4.43
2022-09-07T20:41:35.370Z,4.65
2022-09-07T20:44:03.858Z,5.72
2022-09-07T20:46:31.599Z,4.10
2022-09-07T20:48:58.720Z,5.65
2022-09-07T20:51:25.653Z,4.63
2022-09-07T20:53:52.738Z,5.18
2022-09-07T20:56:28.016Z,4.82
2022-09-07T20:59:02.499Z,5.20
2022-09-07T21:02:32.517Z,5.25
2022-09-07T21:09:30.581Z,11.18
2022-09-07T21:11:57.354Z,7.03
2022-09-07T21:14:38.874Z,3.78
2022-09-07T21:18:05.871Z,7.57
2022-09-07T21:21:18.264Z,5.72
2022-09-07T21:28:08.922Z,11.77
2022-09-07T21:30:35.643Z,7.53
2022-09-07T21:33:03.229Z,7.00
2022-09-07T21:35:30.016Z,5.13
2022-09-07T21:37:56.880Z,6.75
2022-09-07T21:40:24.830Z,5.82
2022-09-07T21:42:51.949Z,6.07
2022-09-07T21:45:18.691Z,8.32
2022-09-07T21:47:45.380Z,8.82
2022-09-07T21:50:12.163Z,7.75
2022-09-07T21:52:38.918Z,6.65
2022-09-07T21:55:06.418Z,6.97
2022-09-07T21:57:33.043Z,8.75
2022-09-07T21:59:59.700Z,6.82
2022-09-07T22:02:26.314Z,8.57
2022-09-07T22:04:53.015Z,6.82
2022-09-07T22:07:19.653Z,7.47
2022-09-07T22:09:46.432Z,7.43
2022-09-07T22:12:13.124Z,8.45
2022-09-07T22:14:39.745Z,10.25
2022-09-07T22:17:06.455Z,7.05
2022-09-07T22:19:33.048Z,7.07
2022-09-07T22:21:59.739Z,7.68
2022-09-07T22:24:26.594Z,6.90
2022-09-07T22:26:53.260Z,8.70
2022-09-07T22:29:19.989Z,7.13
2022-09-07T22:31:46.722Z,8.07
2022-09-07T22:34:13.364Z,9.52
2022-09-07T22:36:43.062Z,12.15
2022-09-07T22:39:19.390Z,7.80
2022-09-07T22:41:47.254Z,5.97
2022-09-07T22:44:16.917Z,11.30
2022-09-07T22:46:45.652Z,8.25
2022-09-07T22:49:15.024Z,6.25
2022-09-07T22:51:41.762Z,7.47
2022-09-07T22:54:08.624Z,8.93
2022-09-07T22:56:35.869Z,9.65
2022-09-07T22:59:05.487Z,7.95
2022-09-07T23:01:32.788Z,9.10
2022-09-07T23:04:00.235Z,10.60
2022-09-07T23:06:45.493Z,8.00
2022-09-07T23:09:17.367Z,11.38
2022-09-07T23:11:45.843Z,9.02
2022-09-07T23:14:16.089Z,14.25
2022-09-07T23:16:43.740Z,11.65
2022-09-07T23:19:12.679Z,9.93
2022-09-07T23:21:40.201Z,10.05
2022-09-07T23:24:07.596Z,8.65
2022-09-07T23:26:34.220Z,8.10
2022-09-07T23:29:02.920Z,6.85
2022-09-07T23:31:31.319Z,10.95
2022-09-07T23:33:58.718Z,7.97
2022-09-07T23:36:26.350Z,9.52
2022-09-07T23:38:57.113Z,10.43
2022-09-07T23:41:24.899Z,9.30
2022-09-07T23:43:52.602Z,9.02
2022-09-07T23:46:19.848Z,11.85
2022-09-07T23:48:48.305Z,10.23
2022-09-07T23:51:18.739Z,9.70
2022-09-07T23:53:49.507Z,9.63
2022-09-07T23:56:16.143Z,10.45
2022-09-07T23:58:43.087Z,10.50
